Time;durP1;ratioP1;P1;durP2;ratioP2;P2;SDS_P1;SDS_P2;PMS_P1;PMS_P2;Temp;Humidity;BMP_temperature;BMP_pressure;BME280_temperature;BME280_humidity;BME280_pressure;Samples;Min_cycle;Max_cycle;Signal;HPM_P1;HPM_P2
2020/12/25 00:00:23;;;;;;;12.10;5.05;;;3.20;99.90;;;;;;5061324;28;20056;-81
2020/12/25 00:02:49;;;;;;;13.98;4.75;;;3.20;99.90;;;;;;5075187;28;20028;-81
2020/12/25 00:05:15;;;;;;;11.75;5.47;;;3.20;99.90;;;;;;5077160;28;20025;-79
2020/12/25 00:07:40;;;;;;;18.48;5.30;;;3.20;99.90;;;;;;5059597;28;20017;-80
2020/12/25 00:10:06;;;;;;;13.57;4.20;;;3.20;99.90;;;;;;5051689;28;20032;-79
2020/12/25 00:12:31;;;;;;;17.15;5.28;;;3.20;99.90;;;;;;5051891;28;20029;-79
2020/12/25 00:14:57;;;;;;;22.63;5.60;;;3.20;99.90;;;;;;5061848;28;20032;-79
2020/12/25 00:17:22;;;;;;;13.68;4.47;;;3.20;99.90;;;;;;5065646;28;20135;-79
2020/12/25 00:19:48;;;;;;;9.40;4.63;;;3.20;99.90;;;;;;5060765;28;20024;-79
2020/12/25 00:22:13;;;;;;;15.18;4.78;;;3.20;99.90;;;;;;5059971;28;20086;-79
2020/12/25 00:24:40;;;;;;;11.60;3.95;;;3.10;99.90;;;;;;5059675;28;20029;-82
2020/12/25 00:27:06;;;;;;;16.25;5.13;;;3.10;99.90;;;;;;5067385;28;20116;-81
2020/12/25 00:29:31;;;;;;;16.95;5.25;;;3.10;99.90;;;;;;5068274;28;20096;-81
2020/12/25 00:31:57;;;;;;;11.57;4.63;;;3.20;99.90;;;;;;5066907;28;20054;-81
2020/12/25 00:34:22;;;;;;;14.63;5.93;;;3.20;99.90;;;;;;5054448;28;20389;-81
2020/12/25 00:36:48;;;;;;;9.68;4.70;;;3.10;99.90;;;;;;5053789;28;20473;-82
2020/12/25 00:39:15;;;;;;;19.27;5.07;;;3.20;99.90;;;;;;5047980;28;20035;-81
2020/12/25 00:41:46;;;;;;;22.65;5.35;;;3.10;99.90;;;;;;5048973;28;20025;-81
2020/12/25 00:44:12;;;;;;;20.30;5.30;;;3.10;99.90;;;;;;5050538;28;20029;-81
2020/12/25 00:46:39;;;;;;;16.05;5.88;;;3.10;99.90;;;;;;5055944;28;20397;-79
2020/12/25 00:49:05;;;;;;;14.65;4.85;;;3.10;99.90;;;;;;5053698;28;20029;-79
2020/12/25 00:51:30;;;;;;;15.82;5.38;;;3.10;99.90;;;;;;5054286;28;20029;-81
2020/12/25 00:53:56;;;;;;;13.43;6.15;;;3.10;99.90;;;;;;5054349;28;20474;-81
2020/12/25 00:56:21;;;;;;;14.20;5.35;;;3.00;99.90;;;;;;5068336;28;20130;-81
2020/12/25 00:58:47;;;;;;;12.68;4.82;;;3.00;99.90;;;;;;5068719;28;20017;-81
2020/12/25 01:01:14;;;;;;;14.23;4.95;;;3.10;99.90;;;;;;5056630;28;20040;-82
2020/12/25 01:03:42;;;;;;;14.23;6.03;;;3.10;99.90;;;;;;5059977;28;20033;-82
2020/12/25 01:06:12;;;;;;;9.15;3.70;;;3.10;99.90;;;;;;5055640;28;20021;-81
2020/12/25 01:08:38;;;;;;;22.38;5.40;;;3.10;99.90;;;;;;5053467;28;20475;-81
2020/12/25 01:11:06;;;;;;;16.13;4.60;;;3.10;99.90;;;;;;5054862;28;20025;-79
2020/12/25 01:13:36;;;;;;;18.67;4.63;;;3.10;99.90;;;;;;5053672;28;20021;-79
2020/12/25 01:16:06;;;;;;;11.93;4.20;;;3.00;99.90;;;;;;5054150;28;20403;-81
2020/12/25 01:18:32;;;;;;;28.50;5.53;;;3.00;99.90;;;;;;5053822;28;20025;-81
2020/12/25 01:20:58;;;;;;;10.38;4.72;;;2.90;99.90;;;;;;5065221;28;20032;-81
2020/12/25 01:23:24;;;;;;;17.45;5.22;;;2.90;99.90;;;;;;5070271;28;20029;-81
2020/12/25 01:25:49;;;;;;;17.70;4.60;;;2.90;99.90;;;;;;5054724;28;20029;-79
2020/12/25 01:28:15;;;;;;;19.40;5.03;;;2.90;99.90;;;;;;5054309;28;20112;-79
2020/12/25 01:30:41;;;;;;;10.60;4.03;;;2.90;99.90;;;;;;5054469;28;20057;-81
2020/12/25 01:33:07;;;;;;;10.32;3.20;;;2.90;99.90;;;;;;5060230;28;20052;-82
2020/12/25 01:35:32;;;;;;;13.85;4.10;;;2.90;99.90;;;;;;5073258;28;20079;-81
2020/12/25 01:37:58;;;;;;;17.42;4.82;;;2.90;99.90;;;;;;5071527;28;20020;-81
2020/12/25 01:40:23;;;;;;;10.35;4.20;;;2.80;99.90;;;;;;5056906;28;20032;-82
2020/12/25 01:42:49;;;;;;;18.88;5.32;;;2.80;99.90;;;;;;5069604;28;20115;-82
2020/12/25 01:45:14;;;;;;;16.27;4.82;;;2.80;99.90;;;;;;5074773;28;20032;-79
2020/12/25 01:47:40;;;;;;;17.42;5.88;;;2.80;99.90;;;;;;5067296;28;20511;-79
2020/12/25 01:50:06;;;;;;;13.82;5.03;;;2.80;99.90;;;;;;5057979;28;20024;-82
2020/12/25 01:52:33;;;;;;;14.82;5.38;;;2.80;99.90;;;;;;5068927;28;20047;-82
2020/12/25 01:54:59;;;;;;;17.13;5.72;;;2.80;99.90;;;;;;5071429;28;20085;-81
2020/12/25 01:57:28;;;;;;;13.57;5.57;;;2.90;99.90;;;;;;5071800;28;20032;-82
2020/12/25 01:59:54;;;;;;;22.17;5.93;;;2.90;99.90;;;;;;5071132;28;20063;-79
2020/12/25 02:02:19;;;;;;;33.22;7.28;;;2.90;99.90;;;;;;5061968;28;20048;-79
2020/12/25 02:04:45;;;;;;;23.42;6.15;;;2.90;99.90;;;;;;5057809;28;20056;-79
2020/12/25 02:07:11;;;;;;;18.33;5.45;;;2.90;99.90;;;;;;5068098;28;20035;-79
2020/12/25 02:09:36;;;;;;;21.23;6.05;;;2.90;99.90;;;;;;5060811;28;20032;-81
2020/12/25 02:12:02;;;;;;;28.15;5.93;;;2.90;99.90;;;;;;5053649;28;20063;-82
2020/12/25 02:14:28;;;;;;;24.48;4.93;;;2.90;99.90;;;;;;5053464;28;20067;-81
2020/12/25 02:16:54;;;;;;;11.80;3.63;;;2.90;99.90;;;;;;5071694;28;20044;-79
2020/12/25 02:19:19;;;;;;;16.55;3.92;;;2.90;99.90;;;;;;5062214;28;20028;-80
2020/12/25 02:21:45;;;;;;;16.65;3.25;;;2.80;99.90;;;;;;5069837;28;20120;-79
2020/12/25 02:24:10;;;;;;;18.23;3.78;;;2.80;99.90;;;;;;5064884;28;20376;-79
2020/12/25 02:26:36;;;;;;;22.63;3.50;;;2.90;99.90;;;;;;5057610;28;20028;-79
2020/12/25 02:29:03;;;;;;;8.52;2.50;;;2.80;99.90;;;;;;5052995;28;20032;-79
2020/12/25 02:31:28;;;;;;;15.95;3.13;;;2.80;99.90;;;;;;5064706;28;20128;-82
2020/12/25 02:33:54;;;;;;;17.83;3.60;;;2.70;99.90;;;;;;5065369;28;20135;-82
2020/12/25 02:36:20;;;;;;;11.85;2.70;;;2.70;99.90;;;;;;5053353;28;20032;-79
2020/12/25 02:38:45;;;;;;;11.13;2.67;;;2.60;99.90;;;;;;5052377;28;20017;-79
2020/12/25 02:41:11;;;;;;;12.10;2.88;;;2.50;99.90;;;;;;5052950;28;20044;-79
2020/12/25 02:43:36;;;;;;;8.07;2.10;;;2.50;99.90;;;;;;5058021;28;20500;-80
2020/12/25 02:46:02;;;;;;;20.48;3.53;;;2.50;99.90;;;;;;5069621;28;20439;-80
2020/12/25 02:48:28;;;;;;;20.98;2.92;;;2.40;99.90;;;;;;5068687;28;20108;-79
2020/12/25 02:50:53;;;;;;;13.13;3.28;;;2.40;99.90;;;;;;5053339;28;20028;-82
2020/12/25 02:53:19;;;;;;;17.80;3.33;;;2.30;99.90;;;;;;5052916;28;20464;-81
2020/12/25 02:55:44;;;;;;;22.75;3.47;;;2.30;99.90;;;;;;5051579;28;20029;-80
2020/12/25 02:58:10;;;;;;;13.70;2.72;;;2.30;99.90;;;;;;5065538;28;20021;-78
2020/12/25 03:00:36;;;;;;;19.08;3.33;;;2.20;99.90;;;;;;5054922;28;20115;-81
2020/12/25 03:03:02;;;;;;;17.02;2.88;;;2.20;99.90;;;;;;5060472;28;20032;-81
2020/12/25 03:05:27;;;;;;;21.98;3.47;;;2.20;99.90;;;;;;5053006;28;20024;-79
2020/12/25 03:07:53;;;;;;;11.88;2.20;;;2.20;99.90;;;;;;5054012;28;20021;-79
2020/12/25 03:10:18;;;;;;;12.30;2.78;;;2.20;99.90;;;;;;5054841;28;20037;-79
2020/12/25 03:12:44;;;;;;;20.35;3.22;;;2.20;99.90;;;;;;5052490;28;20116;-80
2020/12/25 03:15:10;;;;;;;21.42;3.47;;;2.20;99.90;;;;;;5052303;28;20039;-82
2020/12/25 03:17:35;;;;;;;15.07;3.08;;;2.20;99.90;;;;;;5052637;28;20510;-82
2020/12/25 03:20:01;;;;;;;11.50;2.53;;;2.20;99.90;;;;;;5052498;28;20111;-78
2020/12/25 03:22:26;;;;;;;15.55;2.65;;;2.20;99.90;;;;;;5056004;28;20034;-79
2020/12/25 03:24:52;;;;;;;18.92;2.78;;;2.10;99.90;;;;;;5056099;28;20128;-79
2020/12/25 03:27:17;;;;;;;5.40;2.20;;;2.10;99.90;;;;;;5061735;28;20025;-80
2020/12/25 03:29:43;;;;;;;16.27;2.50;;;2.10;99.90;;;;;;5057469;28;20456;-80
2020/12/25 03:32:08;;;;;;;17.73;3.72;;;2.10;99.90;;;;;;5069439;28;20420;-80
2020/12/25 03:34:34;;;;;;;10.90;2.45;;;2.10;99.90;;;;;;5057172;28;20072;-82
2020/12/25 03:36:59;;;;;;;15.07;3.05;;;2.10;99.90;;;;;;5049937;28;20111;-82
2020/12/25 03:39:25;;;;;;;14.15;2.50;;;2.10;99.90;;;;;;5048627;28;20063;-81
2020/12/25 03:41:52;;;;;;;14.07;2.35;;;2.10;99.90;;;;;;5054531;28;20505;-82
2020/12/25 03:44:18;;;;;;;19.95;2.72;;;2.10;99.90;;;;;;5060076;28;20501;-82
2020/12/25 03:46:44;;;;;;;26.95;2.90;;;2.10;99.90;;;;;;5049397;28;20028;-82
2020/12/25 03:49:10;;;;;;;15.45;3.20;;;2.10;99.90;;;;;;5050413;28;20029;-82
2020/12/25 03:51:36;;;;;;;26.20;2.88;;;2.10;99.90;;;;;;5051826;28;20111;-82
2020/12/25 03:54:01;;;;;;;27.52;3.58;;;2.10;99.90;;;;;;5060930;28;20029;-81
2020/12/25 03:56:27;;;;;;;19.35;2.95;;;2.10;99.90;;;;;;5051758;28;20068;-82
2020/12/25 03:58:53;;;;;;;16.13;2.78;;;2.10;99.90;;;;;;5051081;28;20036;-82
2020/12/25 04:01:19;;;;;;;9.55;2.38;;;2.10;99.90;;;;;;5054631;28;20072;-82
2020/12/25 04:03:44;;;;;;;13.55;2.10;;;2.10;99.90;;;;;;5067883;28;20028;-82
2020/12/25 04:06:10;;;;;;;14.48;2.50;;;2.10;99.90;;;;;;5067891;28;20063;-82
2020/12/25 04:08:36;;;;;;;18.10;2.35;;;2.10;99.90;;;;;;5063506;28;20024;-82
2020/12/25 04:11:02;;;;;;;12.27;3.05;;;2.20;99.90;;;;;;5049405;28;20037;-80
2020/12/25 04:13:27;;;;;;;24.92;2.60;;;2.20;99.90;;;;;;5048422;28;20105;-80
2020/12/25 04:15:53;;;;;;;11.00;2.08;;;2.20;99.90;;;;;;5048206;28;20046;-80
2020/12/25 04:18:18;;;;;;;10.88;2.35;;;2.20;99.90;;;;;;5047951;28;20024;-80
2020/12/25 04:20:44;;;;;;;10.70;2.47;;;2.20;99.90;;;;;;5049814;28;20032;-82
2020/12/25 04:23:09;;;;;;;13.18;2.92;;;2.10;99.90;;;;;;5048346;28;20089;-82
2020/12/25 04:25:36;;;;;;;14.68;3.55;;;2.10;99.90;;;;;;5048631;28;20111;-81
2020/12/25 04:28:02;;;;;;;19.33;3.17;;;2.00;99.90;;;;;;5049238;28;20028;-82
2020/12/25 04:30:27;;;;;;;18.33;3.20;;;2.00;99.90;;;;;;5063500;28;20033;-82
2020/12/25 04:32:53;;;;;;;10.35;2.78;;;2.00;99.90;;;;;;5061571;28;20045;-82
2020/12/25 04:35:18;;;;;;;7.47;2.95;;;1.90;99.90;;;;;;5058168;28;20041;-82
2020/12/25 04:37:44;;;;;;;24.20;3.42;;;1.90;99.90;;;;;;5048147;28;20049;-82
2020/12/25 04:40:10;;;;;;;11.45;3.38;;;1.90;99.90;;;;;;5051265;28;20083;-82
2020/12/25 04:42:40;;;;;;;18.48;3.60;;;1.80;99.90;;;;;;5048331;28;20025;-82
2020/12/25 04:45:07;;;;;;;26.77;3.72;;;1.70;99.90;;;;;;5047746;28;20025;-82
2020/12/25 04:47:34;;;;;;;20.42;2.78;;;1.70;99.90;;;;;;5047891;28;20090;-82
2020/12/25 04:50:01;;;;;;;11.60;2.10;;;1.70;99.90;;;;;;5048279;28;20116;-82
2020/12/25 04:52:27;;;;;;;12.20;2.85;;;1.70;99.90;;;;;;5048499;28;20381;-82
2020/12/25 04:54:53;;;;;;;24.50;2.53;;;1.80;99.90;;;;;;5064856;28;20028;-80
2020/12/25 04:57:18;;;;;;;13.57;2.45;;;1.80;99.90;;;;;;5069545;28;20397;-80
2020/12/25 04:59:44;;;;;;;13.30;1.88;;;1.80;99.90;;;;;;5061244;28;20075;-82
2020/12/25 05:02:09;;;;;;;11.43;1.95;;;1.90;99.90;;;;;;5069436;28;20029;-82
2020/12/25 05:04:36;;;;;;;6.10;1.70;;;1.90;99.90;;;;;;5080573;28;20009;-82
2020/12/25 05:07:02;;;;;;;10.45;2.05;;;1.90;99.90;;;;;;5073693;28;20037;-83
2020/12/25 05:09:29;;;;;;;8.80;1.80;;;1.90;99.90;;;;;;5088370;28;20009;-83
2020/12/25 05:11:56;;;;;;;6.95;1.77;;;1.90;99.90;;;;;;5088898;28;20012;-82
2020/12/25 05:14:30;;;;;;;12.65;2.15;;;1.90;99.90;;;;;;5089752;28;20021;-82
2020/12/25 05:16:58;;;;;;;16.58;2.10;;;1.90;99.90;;;;;;5091356;28;20025;-83
2020/12/25 05:19:26;;;;;;;11.63;3.20;;;1.90;99.90;;;;;;5073773;28;20018;-83
2020/12/25 05:21:56;;;;;;;13.35;1.98;;;1.80;99.90;;;;;;5082947;28;20040;-82
2020/12/25 05:24:21;;;;;;;14.85;2.38;;;1.90;99.90;;;;;;5072653;28;20031;-82
2020/12/25 05:26:55;;;;;;;15.95;1.92;;;1.90;99.90;;;;;;5085741;28;20024;-82
2020/12/25 05:29:26;;;;;;;9.15;2.10;;;1.80;99.90;;;;;;5067911;28;20040;-82
2020/12/25 05:31:54;;;;;;;17.80;3.55;;;1.80;99.90;;;;;;5055520;28;20033;-82
2020/12/25 05:34:22;;;;;;;15.57;3.47;;;1.80;99.90;;;;;;5082350;28;20118;-82
2020/12/25 05:36:51;;;;;;;23.35;3.33;;;1.70;99.90;;;;;;5054832;28;20043;-82
2020/12/25 05:39:34;;;;;;;15.80;3.42;;;1.60;99.90;;;;;;5017141;28;20088;-82
2020/12/25 05:42:05;;;;;;;15.02;3.05;;;1.50;99.90;;;;;;4994343;28;20030;-80
2020/12/25 05:44:45;;;;;;;14.73;2.35;;;1.50;99.90;;;;;;4994068;28;20034;-81
2020/12/25 05:47:13;;;;;;;19.23;3.13;;;1.40;99.90;;;;;;4995248;28;20033;-82
2020/12/25 05:49:40;;;;;;;18.60;3.38;;;1.40;99.90;;;;;;5004437;28;20041;-83
2020/12/25 05:52:06;;;;;;;13.32;3.13;;;1.40;99.90;;;;;;5013450;28;20032;-83
2020/12/25 05:54:33;;;;;;;22.30;3.00;;;1.30;99.90;;;;;;5029532;28;20029;-81
2020/12/25 05:56:59;;;;;;;14.30;3.58;;;1.40;99.90;;;;;;5011822;28;20096;-81
2020/12/25 05:59:25;;;;;;;15.75;3.13;;;1.40;99.90;;;;;;4993539;28;20041;-82
2020/12/25 06:01:57;;;;;;;13.07;3.83;;;1.40;99.90;;;;;;5019642;28;20033;-81
2020/12/25 06:04:24;;;;;;;19.25;3.08;;;1.40;99.90;;;;;;5018812;28;20487;-82
2020/12/25 06:06:50;;;;;;;10.52;2.47;;;1.40;99.90;;;;;;5018139;28;20066;-83
2020/12/25 06:09:18;;;;;;;14.93;2.95;;;1.30;99.90;;;;;;5002750;28;20026;-82
2020/12/25 06:11:50;;;;;;;11.80;3.08;;;1.30;99.90;;;;;;5073746;28;20465;-80
2020/12/25 06:14:16;;;;;;;;;;;1.30;99.90;;;;;;5063114;28;20062;-81
2020/12/25 06:16:51;;;;;;;10.82;2.67;;;1.30;99.90;;;;;;5054936;28;19916;-83
2020/12/25 06:19:28;;;;;;;28.23;4.07;;;1.20;99.90;;;;;;5072284;28;20025;-83
2020/12/25 06:22:00;;;;;;;29.02;3.25;;;1.10;99.90;;;;;;5076536;28;20037;-82
2020/12/25 06:24:31;;;;;;;32.85;3.35;;;1.10;99.90;;;;;;5009786;28;20044;-82
2020/12/25 06:27:01;;;;;;;16.40;2.90;;;1.10;99.90;;;;;;5009946;28;20034;-82
2020/12/25 06:29:27;;;;;;;10.02;2.97;;;1.10;99.90;;;;;;5009146;28;20045;-81
2020/12/25 06:31:55;;;;;;;13.88;2.42;;;1.10;99.90;;;;;;5010937;28;20030;-79
2020/12/25 06:34:21;;;;;;;19.83;3.10;;;1.10;99.90;;;;;;5001797;28;20038;-80
2020/12/25 06:36:47;;;;;;;15.60;1.90;;;1.00;99.90;;;;;;4995881;28;20040;-80
2020/12/25 06:39:16;;;;;;;16.05;3.78;;;1.10;99.90;;;;;;5018569;28;20521;-80
2020/12/25 06:41:42;;;;;;;25.08;2.88;;;1.00;99.90;;;;;;5009727;28;20034;-80
2020/12/25 06:44:17;;;;;;;11.02;2.03;;;1.10;99.90;;;;;;5013272;28;20057;-79
2020/12/25 06:46:50;;;;;;;16.42;2.50;;;1.10;99.90;;;;;;5027078;28;20032;-82
2020/12/25 06:49:19;;;;;;;23.08;2.58;;;1.10;99.90;;;;;;5018431;28;20085;-82
2020/12/25 06:51:46;;;;;;;11.90;2.20;;;1.10;99.90;;;;;;5009293;28;20053;-80
2020/12/25 06:54:21;;;;;;;14.07;2.50;;;1.10;99.90;;;;;;5009109;28;20133;-80
2020/12/25 06:56:51;;;;;;;16.38;2.42;;;1.10;99.90;;;;;;5064470;28;20401;-80
2020/12/25 06:59:19;;;;;;;17.00;2.10;;;1.10;99.90;;;;;;5059299;28;20378;-80
2020/12/25 07:01:46;;;;;;;8.75;2.40;;;1.10;99.90;;;;;;5057218;28;20479;-82
2020/12/25 07:04:28;;;;;;;14.45;2.33;;;1.20;99.90;;;;;;5049705;28;20040;-82
2020/12/25 07:06:58;;;;;;;20.70;3.88;;;1.30;99.90;;;;;;5049490;28;20036;-82
2020/12/25 07:09:38;;;;;;;12.35;1.55;;;1.40;99.90;;;;;;5049158;28;20025;-82
2020/12/25 07:12:05;;;;;;;12.80;1.70;;;1.40;99.90;;;;;;5048218;28;20095;-83
2020/12/25 07:14:31;;;;;;;5.43;1.85;;;1.40;99.90;;;;;;5059299;28;20055;-80
2020/12/25 07:16:57;;;;;;;19.48;2.13;;;1.40;99.90;;;;;;5068525;28;20085;-80
2020/12/25 07:19:22;;;;;;;18.85;2.45;;;1.40;99.90;;;;;;5056587;28;20086;-80
2020/12/25 07:21:48;;;;;;;27.38;2.25;;;1.30;99.90;;;;;;5056773;28;20169;-82
2020/12/25 07:24:14;;;;;;;12.23;1.90;;;1.30;99.90;;;;;;5050656;28;20166;-80
2020/12/25 07:26:39;;;;;;;16.65;2.17;;;1.30;99.90;;;;;;5048618;28;20147;-79
2020/12/25 07:29:13;;;;;;;15.63;1.83;;;1.40;99.90;;;;;;5054640;28;20119;-79
2020/12/25 07:31:45;;;;;;;11.02;2.08;;;1.40;99.90;;;;;;5048864;28;20021;-81
2020/12/25 07:34:10;;;;;;;18.88;2.45;;;1.50;99.90;;;;;;5061886;28;20556;-81
2020/12/25 07:36:36;;;;;;;18.40;2.17;;;1.40;99.90;;;;;;5068533;28;20127;-79
2020/12/25 07:39:04;;;;;;;19.42;2.17;;;1.40;99.90;;;;;;5052098;28;20427;-79
2020/12/25 07:41:30;;;;;;;12.88;2.47;;;1.40;99.90;;;;;;5052085;28;20043;-82
2020/12/25 07:43:57;;;;;;;18.98;2.83;;;1.40;99.90;;;;;;5069824;28;20028;-82
2020/12/25 07:46:24;;;;;;;11.65;2.25;;;1.40;99.90;;;;;;5068463;28;20017;-81
2020/12/25 07:48:58;;;;;;;18.45;2.78;;;1.50;99.90;;;;;;5061054;28;20124;-82
2020/12/25 07:51:23;;;;;;;24.77;3.22;;;1.50;99.90;;;;;;5051933;28;20017;-81
2020/12/25 07:53:50;;;;;;;13.27;2.95;;;1.50;99.90;;;;;;5060210;28;20070;-81
2020/12/25 07:56:20;;;;;;;19.80;3.03;;;1.50;99.90;;;;;;5067670;28;20040;-80
2020/12/25 07:58:48;;;;;;;17.80;2.60;;;1.50;99.90;;;;;;5069701;28;20051;-79
2020/12/25 08:01:18;;;;;;;15.88;2.72;;;1.50;99.90;;;;;;5067075;28;20037;-82
2020/12/25 08:03:44;;;;;;;32.05;3.15;;;1.50;99.90;;;;;;5064969;28;20024;-82
2020/12/25 08:06:13;;;;;;;26.50;3.15;;;1.50;99.90;;;;;;5065529;28;20093;-82
2020/12/25 08:08:41;;;;;;;13.00;2.88;;;1.60;99.90;;;;;;5068775;28;20389;-81
2020/12/25 08:11:07;;;;;;;14.00;2.67;;;1.60;99.90;;;;;;5051939;28;20129;-79
2020/12/25 08:13:35;;;;;;;30.20;3.15;;;1.60;99.90;;;;;;5055584;28;20064;-79
2020/12/25 08:16:01;;;;;;;18.58;3.47;;;1.70;99.90;;;;;;5051689;28;20043;-79
2020/12/25 08:18:28;;;;;;;19.98;3.15;;;1.70;99.90;;;;;;5050932;28;20020;-79
2020/12/25 08:20:54;;;;;;;18.70;3.78;;;1.70;99.90;;;;;;5045571;28;20116;-82
2020/12/25 08:23:20;;;;;;;21.02;3.22;;;1.70;99.90;;;;;;5051666;28;20136;-81
2020/12/25 08:25:52;;;;;;;24.02;2.70;;;1.70;99.90;;;;;;5050908;28;20040;-79
2020/12/25 08:28:20;;;;;;;22.23;2.88;;;1.70;99.90;;;;;;5051327;28;20385;-79
2020/12/25 08:30:45;;;;;;;23.23;3.33;;;1.70;99.90;;;;;;5065876;28;20025;-80
2020/12/25 08:33:11;;;;;;;30.85;3.40;;;1.70;99.90;;;;;;5059250;28;20043;-79
2020/12/25 08:35:37;;;;;;;26.15;3.42;;;1.70;99.90;;;;;;5069058;28;20504;-81
2020/12/25 08:38:03;;;;;;;21.25;3.47;;;1.80;99.90;;;;;;5068731;28;20111;-82
2020/12/25 08:40:34;;;;;;;28.88;3.15;;;1.80;99.90;;;;;;5068574;28;20028;-82
2020/12/25 08:43:14;;;;;;;9.55;3.55;;;1.80;99.90;;;;;;5068924;28;20032;-82
2020/12/25 08:45:58;;;;;;;33.45;4.15;;;1.80;99.90;;;;;;5061652;28;20064;-83
2020/12/25 08:48:24;;;;;;;33.72;4.13;;;1.80;99.90;;;;;;5067546;28;20027;-82
2020/12/25 08:50:51;;;;;;;34.35;4.28;;;1.80;99.90;;;;;;5067760;28;20028;-82
2020/12/25 08:53:17;;;;;;;24.25;3.95;;;1.90;99.90;;;;;;5066237;28;20021;-82
2020/12/25 08:55:50;;;;;;;19.92;4.15;;;1.90;99.90;;;;;;5057306;28;20119;-80
2020/12/25 08:58:20;;;;;;;24.17;3.65;;;1.90;99.90;;;;;;5069156;28;20039;-80
2020/12/25 09:00:56;;;;;;;21.63;4.00;;;1.90;99.90;;;;;;5062522;28;20032;-80
2020/12/25 09:03:22;;;;;;;26.95;3.25;;;2.00;99.90;;;;;;5067796;28;20028;-80
2020/12/25 09:05:48;;;;;;;19.08;3.00;;;2.10;99.90;;;;;;5068963;28;20366;-80
2020/12/25 09:08:13;;;;;;;26.15;3.95;;;2.10;99.90;;;;;;5070881;28;20024;-80
2020/12/25 09:10:39;;;;;;;11.98;2.72;;;2.20;99.90;;;;;;5068025;28;20021;-82
2020/12/25 09:13:04;;;;;;;17.02;3.35;;;2.30;99.90;;;;;;5067691;28;20085;-82
2020/12/25 09:15:30;;;;;;;14.48;3.08;;;2.20;99.90;;;;;;5065227;28;20039;-82
2020/12/25 09:17:55;;;;;;;50.58;5.97;;;2.20;99.90;;;;;;5070683;28;20119;-82
2020/12/25 09:20:21;;;;;;;22.90;3.30;;;2.20;99.90;;;;;;5062495;28;20017;-79
2020/12/25 09:22:46;;;;;;;25.83;3.28;;;2.20;99.90;;;;;;5070308;28;20109;-80
2020/12/25 09:25:12;;;;;;;18.80;2.90;;;2.30;99.90;;;;;;5062208;28;20029;-80
2020/12/25 09:27:38;;;;;;;12.48;2.67;;;2.20;99.90;;;;;;5070878;28;20141;-80
2020/12/25 09:30:04;;;;;;;15.13;3.05;;;2.30;99.90;;;;;;5071924;28;20350;-82
2020/12/25 09:32:29;;;;;;;16.55;2.80;;;2.30;99.90;;;;;;5070944;28;20055;-82
2020/12/25 09:34:55;;;;;;;16.02;3.78;;;2.40;99.90;;;;;;5059843;28;20116;-82
2020/12/25 09:37:20;;;;;;;18.05;3.80;;;2.40;99.90;;;;;;5072100;28;20374;-82
2020/12/25 09:39:47;;;;;;;17.27;3.22;;;2.40;99.90;;;;;;5072002;28;20465;-80
2020/12/25 09:42:12;;;;;;;28.88;4.35;;;2.50;99.90;;;;;;5053903;28;20115;-80
2020/12/25 09:44:38;;;;;;;24.50;3.25;;;2.50;99.90;;;;;;5071676;28;20071;-82
2020/12/25 09:47:04;;;;;;;19.35;2.65;;;2.60;99.90;;;;;;5054563;28;20469;-81
2020/12/25 09:49:30;;;;;;;15.82;3.03;;;2.60;99.90;;;;;;5057742;28;20024;-81
2020/12/25 09:51:57;;;;;;;20.50;3.10;;;2.70;99.90;;;;;;5062725;28;20028;-81
2020/12/25 09:54:22;;;;;;;19.35;2.58;;;2.80;99.90;;;;;;5063957;28;20049;-82
2020/12/25 09:56:49;;;;;;;16.60;2.85;;;3.40;99.90;;;;;;5063408;28;20119;-82
2020/12/25 09:59:15;;;;;;;6.38;1.92;;;4.00;99.90;;;;;;5051686;28;20027;-82
2020/12/25 10:01:40;;;;;;;9.88;2.10;;;5.00;99.90;;;;;;5063978;28;20469;-82
2020/12/25 10:04:06;;;;;;;11.27;2.28;;;5.50;99.90;;;;;;5070777;28;20052;-82
2020/12/25 10:06:31;;;;;;;10.25;2.25;;;6.40;99.90;;;;;;5069625;28;20530;-82
2020/12/25 10:08:57;;;;;;;21.67;2.50;;;7.10;99.90;;;;;;5071755;28;20017;-83
2020/12/25 10:11:22;;;;;;;9.75;1.92;;;7.60;99.90;;;;;;5062844;28;20036;-80
2020/12/25 10:13:48;;;;;;;12.25;2.10;;;7.80;99.90;;;;;;5071116;28;20036;-80
2020/12/25 10:16:14;;;;;;;9.63;2.25;;;8.20;99.90;;;;;;5069615;28;20033;-82
2020/12/25 10:18:40;;;;;;;19.98;2.35;;;8.10;99.90;;;;;;5067408;28;20020;-82
2020/12/25 10:21:05;;;;;;;8.35;2.15;;;8.10;99.90;;;;;;5069069;28;20495;-81
2020/12/25 10:23:31;;;;;;;11.20;2.03;;;8.30;99.90;;;;;;5068446;28;20013;-82
2020/12/25 10:25:56;;;;;;;8.85;2.38;;;8.40;99.90;;;;;;5068258;28;20150;-80
2020/12/25 10:28:22;;;;;;;10.43;2.47;;;8.30;99.90;;;;;;5071102;28;20485;-79
2020/12/25 10:30:47;;;;;;;19.35;2.47;;;8.10;99.90;;;;;;5052801;28;20020;-80
2020/12/25 10:33:13;;;;;;;13.32;2.90;;;7.80;99.90;;;;;;5061941;28;20040;-79
2020/12/25 10:35:39;;;;;;;15.48;3.15;;;7.50;99.90;;;;;;5066413;28;20139;-82
2020/12/25 10:38:04;;;;;;;9.90;2.53;;;7.50;99.90;;;;;;5069103;28;20033;-81
2020/12/25 10:40:30;;;;;;;14.10;2.50;;;7.50;99.90;;;;;;5070853;28;20151;-82
2020/12/25 10:42:55;;;;;;;20.27;3.33;;;7.50;99.90;;;;;;5069455;28;20397;-82
2020/12/25 10:45:21;;;;;;;23.35;3.00;;;7.80;99.90;;;;;;5061666;28;20025;-80
2020/12/25 10:47:47;;;;;;;7.50;2.08;;;8.10;99.90;;;;;;5068858;28;20048;-78
2020/12/25 10:50:13;;;;;;;19.20;2.30;;;8.60;99.90;;;;;;5060491;28;20060;-79
2020/12/25 10:52:38;;;;;;;14.65;2.67;;;9.30;99.90;;;;;;5069244;28;20111;-78
2020/12/25 10:55:04;;;;;;;8.00;1.80;;;9.40;99.90;;;;;;5067010;28;20028;-81
2020/12/25 10:57:29;;;;;;;17.75;2.30;;;9.70;99.90;;;;;;5063140;28;20581;-82
2020/12/25 10:59:55;;;;;;;13.77;3.03;;;9.90;99.90;;;;;;5058570;28;20044;-80
2020/12/25 11:02:21;;;;;;;12.23;2.38;;;10.10;99.90;;;;;;5068908;28;20500;-80
2020/12/25 11:04:46;;;;;;;11.85;2.80;;;9.70;99.90;;;;;;5065377;28;20025;-82
2020/12/25 11:07:12;;;;;;;9.55;2.28;;;9.00;99.90;;;;;;5069522;28;20555;-82
2020/12/25 11:09:37;;;;;;;19.70;2.88;;;9.00;99.90;;;;;;5069995;28;20474;-79
2020/12/25 11:12:03;;;;;;;18.95;2.35;;;8.20;99.90;;;;;;5068558;28;20043;-79
2020/12/25 11:14:28;;;;;;;13.50;3.22;;;7.50;99.90;;;;;;5069962;28;20051;-79
2020/12/25 11:16:56;;;;;;;14.07;2.83;;;6.90;99.90;;;;;;5067674;28;20136;-79
2020/12/25 11:19:22;;;;;;;20.88;3.65;;;6.40;99.90;;;;;;5061265;28;20392;-78
2020/12/25 11:21:48;;;;;;;15.80;4.03;;;6.70;99.90;;;;;;5069351;28;20021;-81
2020/12/25 11:24:13;;;;;;;16.92;3.47;;;7.20;99.90;;;;;;5060662;28;20027;-81
2020/12/25 11:26:39;;;;;;;29.83;4.15;;;7.80;99.90;;;;;;5056696;28;20026;-81
2020/12/25 11:29:06;;;;;;;16.00;3.83;;;8.30;99.90;;;;;;5066172;28;20025;-82
2020/12/25 11:31:35;;;;;;;19.08;3.35;;;8.00;99.90;;;;;;5069532;28;20366;-79
2020/12/25 11:34:01;;;;;;;24.10;3.80;;;8.30;99.90;;;;;;5065900;28;20044;-79
2020/12/25 11:36:29;;;;;;;15.52;4.15;;;8.50;99.90;;;;;;5068019;28;20040;-82
2020/12/25 11:38:56;;;;;;;29.38;3.70;;;9.00;99.90;;;;;;5063389;28;20048;-83
2020/12/25 11:41:23;;;;;;;12.65;3.58;;;9.00;99.90;;;;;;5068677;28;20439;-81
2020/12/25 11:43:49;;;;;;;14.20;3.35;;;9.00;99.90;;;;;;5069639;28;20016;-82
2020/12/25 11:46:16;;;;;;;13.65;3.03;;;9.00;99.90;;;;;;5067226;28;20029;-79
2020/12/25 11:48:42;;;;;;;38.92;6.00;;;8.90;99.90;;;;;;5040455;28;20037;-79
2020/12/25 11:51:08;;;;;;;14.52;3.38;;;8.90;99.90;;;;;;5063213;28;20489;-79
2020/12/25 11:53:37;;;;;;;24.27;3.38;;;9.10;99.90;;;;;;5031160;28;20032;-79
2020/12/25 11:56:05;;;;;;;14.27;2.78;;;8.60;99.90;;;;;;5058302;28;20048;-81
2020/12/25 11:58:31;;;;;;;14.15;3.35;;;8.30;99.90;;;;;;5046306;28;20032;-81
2020/12/25 12:00:58;;;;;;;12.90;2.30;;;7.90;99.90;;;;;;5063925;28;20094;-83
2020/12/25 12:03:25;;;;;;;10.55;3.08;;;7.70;99.90;;;;;;5058000;28;20061;-82
2020/12/25 12:05:51;;;;;;;15.55;3.28;;;7.90;99.90;;;;;;5041455;28;20029;-81
2020/12/25 12:08:16;;;;;;;16.52;3.35;;;8.00;99.90;;;;;;5051589;28;20106;-82
2020/12/25 12:10:42;;;;;;;13.60;3.60;;;7.80;99.90;;;;;;5045839;28;20033;-79
2020/12/25 12:13:07;;;;;;;18.38;3.63;;;7.80;99.90;;;;;;5065759;28;20055;-79
2020/12/25 12:15:38;;;;;;;21.52;3.53;;;7.60;99.90;;;;;;5062354;28;20020;-82
2020/12/25 12:18:04;;;;;;;18.02;4.10;;;7.50;99.90;;;;;;5064632;28;20056;-81
2020/12/25 12:20:31;;;;;;;15.18;3.45;;;7.40;99.90;;;;;;5061356;28;20028;-81
2020/12/25 12:22:56;;;;;;;16.40;3.08;;;7.10;99.90;;;;;;5067434;28;20032;-82
2020/12/25 12:25:22;;;;;;;13.10;3.10;;;6.80;99.90;;;;;;5068834;28;20032;-81
2020/12/25 12:27:48;;;;;;;8.25;2.65;;;6.60;99.90;;;;;;5068120;28;20166;-81
2020/12/25 12:30:14;;;;;;;18.33;3.05;;;6.40;99.90;;;;;;5063397;28;20036;-81
2020/12/25 12:32:39;;;;;;;16.73;3.80;;;6.30;99.90;;;;;;5051078;28;20056;-81
2020/12/25 12:35:05;;;;;;;13.38;3.25;;;6.10;99.90;;;;;;5048773;28;20043;-81
2020/12/25 12:37:31;;;;;;;14.45;3.33;;;5.90;99.90;;;;;;5048672;28;20234;-82
2020/12/25 12:39:56;;;;;;;16.15;3.58;;;5.90;99.90;;;;;;5050689;28;20025;-79
2020/12/25 12:42:22;;;;;;;19.42;3.58;;;5.70;99.90;;;;;;5062382;28;20097;-79
2020/12/25 12:44:51;;;;;;;16.52;3.72;;;5.70;99.90;;;;;;5051265;28;20033;-82